Alameda, California
Current Conditions -  °F | °C
As of 9:53 PM on Wednesday 22 Oct 2014 (Local Time) from KOAK Reporting Station
Broken Clouds Broken Clouds  
Wind Chill: 63°   Ceiling: 20000
Heat Index: 63°   Visibility: 10mi
Dew Point: 56°   Wind: 9mph
Humidity: 78%   Direction: 310°NW
Pressure: 30.05"   Gusts: NA
Location:  37.77°N, 122.24°W
Report Text: KOAK 230453Z 31008KT 10SM FEW150 BKN200 17/13 A3005 RMK AO2 SLP175 T01720133 $
Loading
Personal Weather Stations






























Interactive Weather Map
Tropical Storm Tracking
New forecast layout! Learn more

10-Day Weather Forecast

Advertisements
Track Severe Weather on mobile